Laguna Blanca, Argentina
Current Conditions -  °F | °C
As of 10:30 AM on Thursday 30 Oct 2014 (Local Time) from SGAS Reporting Station
Thunderstorm Thunderstorm  
Wind Chill: 70°   Ceiling: 1200
Heat Index: 70°   Visibility: 6mi
Dew Point: 68°   Wind: 23mph
Humidity: 94%   Direction: 200°SSW
Pressure: 29.8"   Gusts: 35mph
Location:  25.13°S, 58.25°W
Report Text: SGAS 301330Z 20020G30KT 9000 TSRA BKN012 OVC027 FEW040CB 21/20 Q1009
Loading
Personal Weather Stations






























Interactive Weather Map
Tropical Storm Tracking
New forecast layout! Learn more

10-Day Weather Forecast

Advertisements
Track Severe Weather on mobile